Time;durP1;ratioP1;P1;durP2;ratioP2;P2;SDS_P1;SDS_P2;PMS_P1;PMS_P2;Temp;Humidity;BMP_temperature;BMP_pressure;BME280_temperature;BME280_humidity;BME280_pressure;Samples;Min_cycle;Max_cycle;Signal;HPM_P1;HPM_P2
2022/10/14 00:01:21;;;;;;;12.70;9.10;;;;;;;11.52;81.82;95018.01;1734508;81;20987;-54
2022/10/14 00:03:50;;;;;;;18.35;10.50;;;;;;;11.53;81.71;95014.66;1734437;81;21431;-53
2022/10/14 00:06:21;;;;;;;12.93;10.15;;;;;;;11.51;81.62;95006.83;1734436;81;21007;-53
2022/10/14 00:08:47;;;;;;;12.63;8.38;;;;;;;11.53;81.32;95013.28;1734628;82;20967;-53
2022/10/14 00:11:19;;;;;;;16.42;10.10;;;;;;;11.52;81.16;95011.74;1734419;81;20963;-53
2022/10/14 00:13:46;;;;;;;26.90;11.65;;;;;;;11.53;80.72;95009.90;1734439;81;20980;-53
2022/10/14 00:16:28;;;;;;;23.77;12.03;;;;;;;11.50;80.48;95016.93;1734756;81;21334;-55
2022/10/14 00:18:56;;;;;;;16.15;9.28;;;;;;;11.46;80.52;95009.37;1734497;82;20998;-53
2022/10/14 00:21:26;;;;;;;15.00;9.90;;;;;;;11.43;80.34;95016.56;1734676;81;21128;-56
2022/10/14 00:23:52;;;;;;;13.60;9.40;;;;;;;11.43;80.26;95014.41;1734411;81;21042;-54
2022/10/14 00:26:29;;;;;;;15.18;9.83;;;;;;;11.45;80.24;95008.62;1734651;81;21098;-54
2022/10/14 00:28:56;;;;;;;14.20;8.18;;;;;;;11.47;79.75;95010.32;1734527;81;21276;-53
2022/10/14 00:31:26;;;;;;;14.50;10.18;;;;;;;11.44;79.55;95018.10;1732836;82;21083;-54
2022/10/14 00:33:54;;;;;;;15.15;8.03;;;;;;;11.40;79.52;95009.20;1727166;83;21011;-53
2022/10/14 00:36:23;;;;;;;12.00;9.38;;;;;;;11.38;79.62;95011.59;1727180;83;21051;-53
2022/10/14 00:38:51;;;;;;;14.65;12.00;;;;;;;11.37;79.55;95002.42;1727322;81;21095;-54
2022/10/14 00:41:22;;;;;;;27.15;18.85;;;;;;;11.35;79.48;95006.98;1727055;81;21865;-53
2022/10/14 00:44:11;;;;;;;18.70;12.50;;;;;;;11.38;79.56;95006.72;1727127;81;21542;-54
2022/10/14 00:46:45;;;;;;;20.08;11.38;;;;;;;11.38;79.12;95000.58;1724879;83;20968;-54
2022/10/14 00:49:33;;;;;;;20.37;13.25;;;;;;;11.39;78.91;94999.36;1727065;83;21035;-55
2022/10/14 00:52:09;;;;;;;36.17;19.10;;;;;;;11.39;78.89;94993.86;1716461;81;21083;-53
2022/10/14 00:54:41;;;;;;;33.88;20.08;;;;;;;11.36;78.82;94996.13;1727562;83;21393;-53
2022/10/14 00:57:09;;;;;;;20.80;13.35;;;;;;;11.32;78.71;94988.60;1727327;83;20956;-54
2022/10/14 00:59:36;;;;;;;22.17;13.70;;;;;;;11.30;78.61;94991.03;1727049;83;20999;-53
2022/10/14 01:02:03;;;;;;;21.00;14.47;;;;;;;11.29;78.49;94992.25;1727178;83;21047;-54
2022/10/14 01:04:32;;;;;;;14.00;9.33;;;;;;;11.25;78.30;94981.97;1727155;82;21007;-53
2022/10/14 01:07:28;;;;;;;10.75;8.38;;;;;;;11.19;78.56;94987.86;1727170;83;21483;-53
2022/10/14 01:10:15;;;;;;;10.43;8.00;;;;;;;11.11;78.54;94992.08;1727225;81;20999;-53
2022/10/14 01:13:18;;;;;;;22.10;13.03;;;;;;;10.96;78.79;94985.50;1727384;83;21500;-53
2022/10/14 01:15:52;;;;;;;25.43;13.13;;;;;;;10.91;79.23;94984.69;1727311;83;20991;-53
2022/10/14 01:18:44;;;;;;;21.68;12.20;;;;;;;10.91;78.81;94984.69;1727434;81;26085;-54
2022/10/14 01:21:42;;;;;;;22.47;12.53;;;;;;;10.90;78.71;94990.62;1727610;83;21151;-54
2022/10/14 01:24:37;;;;;;;17.42;10.38;;;;;;;10.92;78.87;94991.73;1727263;81;21054;-54
2022/10/14 01:27:35;;;;;;;20.52;11.25;;;;;;;10.95;78.55;94990.09;1727323;81;21007;-54
2022/10/14 01:30:23;;;;;;;11.75;9.00;;;;;;;10.90;78.57;94983.74;1726374;82;21043;-54
2022/10/14 01:33:13;;;;;;;9.80;7.67;;;;;;;10.88;78.40;94982.83;1727334;81;21522;-54
2022/10/14 01:35:51;;;;;;;10.28;7.40;;;;;;;10.83;78.26;94980.61;1708749;83;21561;-52
2022/10/14 01:38:30;;;;;;;11.28;8.48;;;;;;;10.73;78.14;94989.84;1723804;83;21427;-54
2022/10/14 01:41:03;;;;;;;13.83;9.55;;;;;;;10.57;78.42;94985.83;1727340;83;21437;-52
2022/10/14 01:43:31;;;;;;;18.40;10.70;;;;;;;10.49;79.09;94988.64;1727307;83;21018;-54
2022/10/14 01:45:59;;;;;;;12.47;9.10;;;;;;;10.52;79.33;94991.88;1708964;83;20976;-54
2022/10/14 01:48:33;;;;;;;12.78;8.15;;;;;;;10.52;79.37;94985.01;1727282;82;21288;-54
2022/10/14 01:51:01;;;;;;;15.10;9.03;;;;;;;10.53;79.37;94985.92;1727291;83;21451;-53
2022/10/14 01:53:33;;;;;;;12.37;8.58;;;;;;;10.50;79.25;94987.43;1727569;81;20976;-53
2022/10/14 01:56:01;;;;;;;13.00;8.40;;;;;;;10.46;79.49;94987.53;1727289;83;21461;-54
2022/10/14 01:58:33;;;;;;;10.50;8.13;;;;;;;10.45;79.58;94981.87;1727205;83;21553;-54
2022/10/14 02:01:05;;;;;;;15.28;8.23;;;;;;;10.43;79.76;94984.88;1727337;81;21261;-53
2022/10/14 02:03:44;;;;;;;11.48;8.93;;;;;;;10.36;79.81;94983.12;1727275;83;21019;-54
2022/10/14 02:06:26;;;;;;;12.43;8.83;;;;;;;10.32;79.91;94982.46;1727160;83;21027;-53
2022/10/14 02:09:24;;;;;;;12.30;8.03;;;;;;;10.30;79.84;94989.59;1727464;83;21050;-53
2022/10/14 02:12:08;;;;;;;11.78;7.20;;;;;;;10.27;79.85;94984.98;1727346;81;21054;-54
2022/10/14 02:15:09;;;;;;;13.65;8.83;;;;;;;10.22;80.11;94991.03;1687592;83;20968;-56
2022/10/14 02:18:14;;;;;;;10.53;7.87;;;;;;;10.13;80.23;94983.44;1727201;81;21007;-55
2022/10/14 02:20:55;;;;;;;14.90;8.95;;;;;;;10.12;80.71;94988.77;1718347;82;21506;-53
2022/10/14 02:23:27;;;;;;;13.10;8.95;;;;;;;10.14;80.69;94982.23;1727316;83;21532;-54
2022/10/14 02:25:57;;;;;;;12.40;7.95;;;;;;;10.19;80.78;94983.05;1727555;83;20967;-54
2022/10/14 02:28:26;;;;;;;16.80;10.28;;;;;;;10.19;80.38;94981.67;1727304;83;21071;-53
2022/10/14 02:30:56;;;;;;;11.40;8.18;;;;;;;10.16;80.63;94979.80;1727125;81;21011;-53
2022/10/14 02:33:27;;;;;;;14.78;8.95;;;;;;;10.21;80.73;94973.78;1732532;81;21007;-55
2022/10/14 02:35:54;;;;;;;10.50;7.90;;;;;;;10.24;80.57;94977.61;1734612;81;21035;-53
2022/10/14 02:38:23;;;;;;;9.60;8.10;;;;;;;10.24;80.52;94978.98;1734529;81;21055;-54
2022/10/14 02:40:52;;;;;;;11.08;8.53;;;;;;;10.20;80.03;94979.70;1706697;82;21171;-54
2022/10/14 02:43:19;;;;;;;11.78;8.73;;;;;;;10.14;80.17;94982.23;1734468;82;20947;-54
2022/10/14 02:45:46;;;;;;;11.85;8.83;;;;;;;10.14;80.08;94979.48;1734646;81;20955;-54
2022/10/14 02:48:13;;;;;;;16.37;10.25;;;;;;;10.17;80.00;94990.97;1734504;81;20983;-53
2022/10/14 02:50:41;;;;;;;10.80;9.20;;;;;;;10.11;79.93;94983.11;1705852;82;21043;-53
2022/10/14 02:53:08;;;;;;;15.78;9.23;;;;;;;10.03;80.28;94979.63;1705804;82;21832;-54
2022/10/14 02:55:36;;;;;;;19.87;10.90;;;;;;;9.97;80.38;94984.11;1705673;82;20967;-53
2022/10/14 02:58:03;;;;;;;12.68;9.98;;;;;;;9.92;80.71;94983.25;1734693;81;21492;-53
2022/10/14 03:00:29;;;;;;;14.95;10.00;;;;;;;9.94;80.82;94987.70;1734616;82;21070;-54
2022/10/14 03:02:56;;;;;;;15.05;9.58;;;;;;;9.90;80.77;94986.45;1734463;82;20991;-53
2022/10/14 03:05:24;;;;;;;13.20;9.28;;;;;;;9.89;81.15;94992.38;1734469;81;21241;-53
2022/10/14 03:07:51;;;;;;;12.30;9.23;;;;;;;9.92;81.07;94981.88;1734457;81;21058;-53
2022/10/14 03:10:18;;;;;;;12.55;9.08;;;;;;;9.94;81.05;94987.70;1734447;81;20955;-53
2022/10/14 03:12:51;;;;;;;8.63;7.72;;;;;;;9.93;80.80;94986.95;1734414;81;21020;-52
2022/10/14 03:15:27;;;;;;;11.85;8.10;;;;;;;9.90;80.88;94983.70;1734489;82;21484;-53
2022/10/14 03:17:54;;;;;;;14.93;7.92;;;;;;;9.87;80.85;94990.08;1734633;82;22087;-53
2022/10/14 03:20:24;;;;;;;12.60;8.20;;;;;;;9.85;81.09;94988.38;1734564;81;21030;-53
2022/10/14 03:22:52;;;;;;;11.28;8.23;;;;;;;9.83;81.19;94989.39;1734492;82;21494;-53
2022/10/14 03:25:19;;;;;;;10.40;7.75;;;;;;;9.83;81.22;94986.64;1734489;82;20962;-53
2022/10/14 03:27:47;;;;;;;9.73;7.60;;;;;;;9.86;81.01;94983.63;1731063;82;20967;-52
2022/10/14 03:30:14;;;;;;;12.10;8.15;;;;;;;9.83;80.86;94983.14;1734515;81;22167;-54
2022/10/14 03:32:43;;;;;;;10.60;7.35;;;;;;;9.81;80.83;94984.18;1729304;81;21071;-52
2022/10/14 03:35:24;;;;;;;11.83;8.70;;;;;;;9.81;81.00;94984.18;1700670;82;21002;-55
2022/10/14 03:37:53;;;;;;;17.60;8.28;;;;;;;9.77;80.75;94989.77;1685520;82;21536;-53
2022/10/14 03:40:22;;;;;;;17.17;9.13;;;;;;;9.74;80.96;94987.89;1727250;83;21071;-54
2022/10/14 03:42:50;;;;;;;9.45;7.55;;;;;;;9.73;80.80;94988.31;1727087;82;21218;-54
2022/10/14 03:45:17;;;;;;;11.73;7.50;;;;;;;9.68;80.82;94986.89;1727086;81;20960;-54
2022/10/14 03:47:47;;;;;;;19.02;9.08;;;;;;;9.65;81.03;94983.63;1727157;81;21440;-54
2022/10/14 03:50:14;;;;;;;12.45;8.40;;;;;;;9.64;81.50;94986.82;1727154;83;21475;-53
2022/10/14 03:52:43;;;;;;;13.95;8.90;;;;;;;9.67;81.72;94981.23;1708379;83;21074;-53
2022/10/14 03:55:12;;;;;;;10.53;7.17;;;;;;;9.68;81.71;94984.15;1726521;82;21226;-53
2022/10/14 03:57:40;;;;;;;9.50;7.90;;;;;;;9.69;81.61;94989.02;1727032;82;21035;-53
2022/10/14 04:00:11;;;;;;;9.23;7.20;;;;;;;9.66;81.44;94981.66;1727144;81;20963;-54
2022/10/14 04:02:40;;;;;;;13.25;7.40;;;;;;;9.63;81.33;94983.29;1727420;81;21050;-53
2022/10/14 04:05:11;;;;;;;12.05;7.72;;;;;;;9.60;81.33;94988.91;1726647;82;21129;-52
2022/10/14 04:07:38;;;;;;;9.20;7.97;;;;;;;9.57;81.35;94987.00;1727110;83;21245;-53
2022/10/14 04:10:07;;;;;;;11.30;8.03;;;;;;;9.53;81.35;94984.38;1727142;81;21047;-52
2022/10/14 04:12:34;;;;;;;11.50;8.10;;;;;;;9.53;81.26;94986.33;1727128;81;21007;-52
2022/10/14 04:15:04;;;;;;;11.00;7.42;;;;;;;9.49;81.03;94973.31;1708075;83;21014;-52
2022/10/14 04:17:35;;;;;;;10.50;7.70;;;;;;;9.44;81.08;94973.23;1726963;83;21062;-53
2022/10/14 04:20:05;;;;;;;11.18;8.10;;;;;;;9.44;81.08;94973.23;1726996;82;22456;-54
2022/10/14 04:22:34;;;;;;;13.70;8.93;;;;;;;9.40;81.62;94972.56;1708891;83;21003;-54
2022/10/14 04:25:01;;;;;;;13.22;8.85;;;;;;;9.43;81.72;94970.94;1727269;82;21050;-55
2022/10/14 04:27:28;;;;;;;15.70;8.93;;;;;;;9.43;81.97;94975.05;1727171;81;20976;-54
2022/10/14 04:29:57;;;;;;;11.97;7.90;;;;;;;9.41;82.22;94967.86;1726437;81;21011;-53
2022/10/14 04:32:26;;;;;;;12.93;8.13;;;;;;;9.46;82.15;94970.06;1726902;82;21262;-53
2022/10/14 04:34:53;;;;;;;10.95;8.23;;;;;;;9.47;82.19;94974.34;1727060;83;21019;-52
2022/10/14 04:37:23;;;;;;;9.50;8.10;;;;;;;9.46;81.75;94974.18;1727147;81;21007;-52
2022/10/14 04:39:51;;;;;;;10.60;8.08;;;;;;;9.43;81.42;94979.17;1725919;82;21466;-53
2022/10/14 04:42:19;;;;;;;13.58;8.78;;;;;;;9.37;81.21;94976.77;1708632;82;20967;-54
2022/10/14 04:44:49;;;;;;;14.25;7.72;;;;;;;9.29;81.27;94977.55;1727167;81;21120;-54
2022/10/14 04:47:18;;;;;;;9.60;7.20;;;;;;;9.30;81.31;94972.84;1727018;83;21468;-51
2022/10/14 04:49:47;;;;;;;9.58;6.97;;;;;;;9.31;81.19;94970.27;1727136;81;20967;-51
2022/10/14 04:52:16;;;;;;;11.30;7.40;;;;;;;9.30;80.90;94966.77;1726835;81;21008;-51
2022/10/14 04:54:44;;;;;;;15.43;7.40;;;;;;;9.26;80.88;94972.18;1725853;81;21023;-54
2022/10/14 04:57:11;;;;;;;9.65;6.90;;;;;;;9.23;80.78;94962.83;1708531;82;21414;-51
2022/10/14 04:59:38;;;;;;;12.25;7.53;;;;;;;9.19;80.69;94964.12;1726982;82;21002;-51
2022/10/14 05:02:22;;;;;;;9.00;7.45;;;;;;;9.15;80.88;94960.70;1725351;82;21100;-52
2022/10/14 05:04:51;;;;;;;12.43;7.37;;;;;;;9.13;80.81;94967.23;1727096;81;21644;-52
2022/10/14 05:07:18;;;;;;;11.78;7.55;;;;;;;9.11;81.02;94968.27;1708754;83;21031;-56
2022/10/14 05:09:46;;;;;;;9.13;6.75;;;;;;;9.08;81.07;94968.52;1727076;82;21120;-53
2022/10/14 05:12:20;;;;;;;10.08;7.67;;;;;;;9.08;80.96;94966.39;1726627;82;21038;-52
2022/10/14 05:14:51;;;;;;;8.48;7.17;;;;;;;9.07;80.96;94970.34;1727031;81;21058;-53
2022/10/14 05:17:26;;;;;;;11.33;7.70;;;;;;;9.04;80.81;94971.20;1725844;82;20977;-53
2022/10/14 05:19:54;;;;;;;14.25;8.38;;;;;;;9.03;81.06;94974.53;1708640;81;21108;-53
2022/10/14 05:22:22;;;;;;;14.33;7.60;;;;;;;9.05;81.22;94966.64;1727481;83;21154;-53
2022/10/14 05:24:50;;;;;;;15.65;8.15;;;;;;;9.09;81.11;94974.79;1727002;81;20999;-53
2022/10/14 05:27:17;;;;;;;12.58;7.70;;;;;;;9.08;81.16;94978.73;1727071;83;20971;-52
2022/10/14 05:29:44;;;;;;;11.20;7.87;;;;;;;9.07;80.92;94973.08;1727055;83;21046;-54
2022/10/14 05:32:11;;;;;;;9.05;7.10;;;;;;;9.04;81.03;94969.83;1727056;83;21090;-54
2022/10/14 05:34:40;;;;;;;8.53;6.80;;;;;;;9.08;80.90;94972.63;1726870;81;21118;-54
2022/10/14 05:37:09;;;;;;;18.10;12.28;;;;;;;9.07;80.65;94972.46;1726936;83;20967;-53
2022/10/14 05:39:38;;;;;;;15.30;11.25;;;;;;;9.06;80.97;94970.17;1726510;82;20999;-54
2022/10/14 05:42:06;;;;;;;36.08;18.50;;;;;;;9.09;80.92;94972.05;1727074;82;21389;-54
2022/10/14 05:44:35;;;;;;;16.27;10.72;;;;;;;9.12;80.85;94973.92;1727147;83;20951;-55
2022/10/14 05:47:03;;;;;;;26.25;8.65;;;;;;;9.13;80.75;94972.72;1724990;81;21359;-53
2022/10/14 05:49:31;;;;;;;10.45;7.58;;;;;;;9.13;80.58;94973.50;1715623;82;21007;-54
2022/10/14 05:51:59;;;;;;;14.15;8.73;;;;;;;9.14;80.40;94975.63;1655356;84;21045;-51
2022/10/14 05:54:27;;;;;;;12.93;7.65;;;;;;;9.13;80.28;94972.72;1637354;86;21077;-53
2022/10/14 05:56:55;;;;;;;18.42;10.55;;;;;;;9.12;80.21;94981.56;1712672;82;21483;-55
2022/10/14 05:59:23;;;;;;;14.75;8.75;;;;;;;9.10;80.19;94970.22;1688529;82;21139;-56
2022/10/14 06:01:52;;;;;;;13.28;8.08;;;;;;;9.12;80.30;94967.06;1716114;82;22283;-55
2022/10/14 06:04:19;;;;;;;9.90;8.23;;;;;;;9.14;80.36;94975.63;1700836;83;21580;-54
2022/10/14 06:06:48;;;;;;;16.15;8.00;;;;;;;9.20;80.14;94964.28;1711205;81;21565;-60
2022/10/14 06:09:16;;;;;;;17.62;9.85;;;;;;;9.29;80.06;94971.31;1703617;82;21103;-55
2022/10/14 06:11:44;;;;;;;13.90;9.00;;;;;;;9.32;80.06;94967.69;1706818;81;21029;-60
2022/10/14 06:14:12;;;;;;;21.12;10.60;;;;;;;9.38;79.91;94970.07;1668830;84;21017;-52
2022/10/14 06:16:41;;;;;;;15.50;9.23;;;;;;;9.35;79.65;94973.09;1669683;84;21066;-54
2022/10/14 06:19:08;;;;;;;64.10;27.25;;;;;;;9.32;79.82;94977.30;1698873;81;21086;-55
2022/10/14 06:21:36;;;;;;;19.75;9.73;;;;;;;9.34;79.82;94970.77;1709866;82;21092;-57
2022/10/14 06:24:04;;;;;;;19.87;9.93;;;;;;;9.38;79.64;94978.31;1715050;82;21246;-55
2022/10/14 06:26:32;;;;;;;17.55;9.70;;;;;;;9.39;79.41;94977.10;1679463;82;21070;-55
2022/10/14 06:28:59;;;;;;;14.10;7.67;;;;;;;9.41;79.51;94976.09;1704175;82;21105;-54
2022/10/14 06:31:26;;;;;;;11.85;7.83;;;;;;;9.46;79.17;94983.80;1701473;81;21089;-54
2022/10/14 06:33:52;;;;;;;12.93;7.80;;;;;;;9.47;78.90;94979.84;1712306;81;21074;-54
2022/10/14 06:36:21;;;;;;;21.95;8.30;;;;;;;9.51;78.64;94975.02;1716469;82;21157;-57
2022/10/14 06:38:48;;;;;;;10.80;6.97;;;;;;;9.52;78.55;94980.09;1716141;82;21044;-52
2022/10/14 06:41:15;;;;;;;15.10;8.23;;;;;;;9.55;78.69;94977.84;1707852;82;21109;-54
2022/10/14 06:43:41;;;;;;;10.40;7.72;;;;;;;9.57;78.49;94978.17;1706150;82;21006;-50
2022/10/14 06:46:09;;;;;;;10.35;7.30;;;;;;;9.58;78.33;94984.45;1715588;82;21696;-52
2022/10/14 06:48:37;;;;;;;17.42;8.30;;;;;;;9.53;78.37;94980.25;1692342;82;21112;-55
2022/10/14 06:51:05;;;;;;;20.48;8.65;;;;;;;9.53;78.51;94980.84;1697690;82;21054;-54
2022/10/14 06:53:32;;;;;;;13.15;7.67;;;;;;;9.56;78.61;94982.71;1727893;81;21169;-57
2022/10/14 06:56:00;;;;;;;15.63;8.53;;;;;;;9.62;78.40;94983.74;1715638;81;21063;-50
2022/10/14 06:58:28;;;;;;;12.70;8.25;;;;;;;9.64;78.25;94990.94;1706832;82;21525;-55
2022/10/14 07:01:02;;;;;;;10.70;7.37;;;;;;;9.68;78.45;94983.36;1705003;82;21252;-53
2022/10/14 07:03:29;;;;;;;9.85;7.03;;;;;;;9.77;77.98;94994.50;1713208;82;20986;-53
2022/10/14 07:05:56;;;;;;;13.05;7.75;;;;;;;9.76;77.40;94986.09;1710045;82;21045;-53
2022/10/14 07:08:24;;;;;;;13.83;7.28;;;;;;;9.72;77.56;94985.41;1706691;82;21553;-58
2022/10/14 07:10:54;;;;;;;7.17;6.30;;;;;;;9.73;77.27;94983.61;1682389;82;21773;-55
2022/10/14 07:13:21;;;;;;;21.30;7.00;;;;;;;9.77;77.20;94990.38;1713663;82;21859;-55
2022/10/14 07:15:48;;;;;;;8.28;7.17;;;;;;;9.85;77.04;94987.59;1706942;82;20995;-55
2022/10/14 07:18:16;;;;;;;7.95;7.03;;;;;;;9.92;76.85;94983.25;1677205;83;21055;-55
2022/10/14 07:20:44;;;;;;;12.73;7.72;;;;;;;9.91;76.59;94976.22;1659547;83;20986;-57
2022/10/14 07:23:11;;;;;;;9.08;7.10;;;;;;;9.93;76.80;94982.83;1678249;83;21088;-54
2022/10/14 07:25:39;;;;;;;21.42;7.62;;;;;;;10.02;76.50;94978.09;1675975;84;21234;-55
2022/10/14 07:28:06;;;;;;;17.27;7.50;;;;;;;10.14;76.39;94979.48;1668738;84;21046;-55
2022/10/14 07:30:34;;;;;;;11.50;8.80;;;;;;;10.27;75.99;94973.98;1673357;84;22285;-56
2022/10/14 07:33:01;;;;;;;12.05;8.15;;;;;;;10.41;75.46;94972.18;1668370;84;21083;-56
2022/10/14 07:35:29;;;;;;;14.40;9.13;;;;;;;10.40;74.88;94973.39;1666395;84;21035;-55
2022/10/14 07:37:57;;;;;;;15.20;8.03;;;;;;;10.42;74.83;94975.88;1691077;83;21324;-55
2022/10/14 07:40:26;;;;;;;10.45;7.47;;;;;;;10.43;74.58;94975.26;1705855;82;21087;-55
2022/10/14 07:42:53;;;;;;;19.32;8.83;;;;;;;10.44;74.34;94979.55;1704674;81;21786;-57
2022/10/14 07:45:20;;;;;;;8.25;6.25;;;;;;;10.47;74.29;94980.03;1700520;83;20980;-55
2022/10/14 07:47:49;;;;;;;9.15;6.87;;;;;;;10.59;74.02;94976.52;1718971;82;21084;-56
2022/10/14 07:50:16;;;;;;;11.53;6.47;;;;;;;10.71;73.34;94970.25;1683550;82;21133;-54
2022/10/14 07:52:44;;;;;;;11.33;8.03;;;;;;;10.82;73.31;94971.44;1643071;86;21550;-56
2022/10/14 07:55:12;;;;;;;16.05;9.18;;;;;;;10.89;73.03;94971.98;1702256;83;21561;-57
2022/10/14 07:57:39;;;;;;;10.23;8.30;;;;;;;11.01;72.89;94966.28;1687152;83;21566;-56
2022/10/14 08:00:09;;;;;;;10.13;7.35;;;;;;;11.14;72.49;94976.04;1704007;83;21133;-56
2022/10/14 08:02:39;;;;;;;10.90;6.85;;;;;;;11.23;71.86;94974.77;1719362;82;21214;-55
2022/10/14 08:05:06;;;;;;;10.35;7.50;;;;;;;11.30;71.47;94971.75;1709760;83;21074;-56
2022/10/14 08:07:34;;;;;;;13.08;7.35;;;;;;;11.31;71.23;94980.17;1706701;82;20975;-54
2022/10/14 08:10:03;;;;;;;13.62;7.15;;;;;;;11.33;71.17;94974.98;1706168;82;21070;-55
2022/10/14 08:12:31;;;;;;;9.60;7.83;;;;;;;11.33;71.21;94969.48;1692365;83;21623;-55
2022/10/14 08:14:58;;;;;;;11.53;7.97;;;;;;;11.34;71.20;94971.64;1702787;82;21793;-54
2022/10/14 08:17:25;;;;;;;13.10;6.95;;;;;;;11.37;71.27;94974.25;1676891;82;21054;-55
2022/10/14 08:19:53;;;;;;;15.38;7.60;;;;;;;11.45;71.44;94970.05;1702236;83;21116;-55
2022/10/14 08:22:20;;;;;;;16.17;8.68;;;;;;;11.54;70.89;94962.47;1723546;81;21056;-55
2022/10/14 08:24:49;;;;;;;12.05;7.87;;;;;;;11.55;71.14;94958.49;1696162;81;21180;-56
2022/10/14 08:27:18;;;;;;;17.85;7.62;;;;;;;11.60;71.07;94957.94;1651946;82;21312;-58
2022/10/14 08:29:45;;;;;;;11.73;7.35;;;;;;;11.68;70.97;94962.75;1680797;82;21052;-54
2022/10/14 08:32:13;;;;;;;9.03;7.35;;;;;;;11.76;70.57;94962.67;1688871;82;21030;-57
2022/10/14 08:34:41;;;;;;;10.32;6.70;;;;;;;11.76;69.97;94961.89;1708978;81;21054;-52
2022/10/14 08:37:10;;;;;;;9.90;6.87;;;;;;;11.75;70.01;94962.48;1702407;82;21027;-55
2022/10/14 08:39:38;;;;;;;20.08;8.65;;;;;;;11.79;70.18;94963.74;1722988;82;21100;-55
2022/10/14 08:42:32;;;;;;;10.75;8.23;;;;;;;11.86;70.16;94955.98;1671897;82;21169;-54
2022/10/14 08:45:26;;;;;;;10.72;8.05;;;;;;;11.87;69.70;94953.38;1715817;81;21058;-54
2022/10/14 08:47:56;;;;;;;13.70;8.03;;;;;;;11.93;69.61;94951.58;1722501;82;21027;-56
2022/10/14 08:50:36;;;;;;;14.53;8.60;;;;;;;12.03;69.64;94951.80;1720817;82;21041;-57
2022/10/14 08:53:14;;;;;;;25.48;8.93;;;;;;;12.17;69.27;94950.48;1726489;82;21121;-55
2022/10/14 08:55:47;;;;;;;13.75;8.75;;;;;;;12.32;68.51;94947.34;1686454;82;20990;-53
2022/10/14 08:58:37;;;;;;;13.75;8.08;;;;;;;12.49;68.21;94942.50;1674804;82;21092;-54
2022/10/14 09:01:27;;;;;;;12.70;8.25;;;;;;;12.69;67.62;94934.63;1687956;82;21117;-54
2022/10/14 09:04:07;;;;;;;13.05;7.95;;;;;;;12.84;67.85;94935.56;1682541;82;21058;-54
2022/10/14 09:06:35;;;;;;;12.63;7.92;;;;;;;13.05;67.10;94935.48;1720063;82;21130;-53
2022/10/14 09:09:17;;;;;;;20.65;8.48;;;;;;;13.27;66.48;94927.08;1723535;82;21349;-54
2022/10/14 09:11:47;;;;;;;12.15;7.53;;;;;;;13.49;66.26;94922.17;1713505;82;21994;-54
2022/10/14 09:14:18;;;;;;;15.20;7.78;;;;;;;13.82;66.06;94929.98;1714827;82;21240;-55
2022/10/14 09:16:45;;;;;;;11.40;7.67;;;;;;;14.17;64.99;94927.77;1716894;82;21593;-55
2022/10/14 09:19:40;;;;;;;12.58;7.65;;;;;;;14.57;63.59;94926.85;1710199;82;21196;-57
2022/10/14 09:22:12;;;;;;;22.73;8.60;;;;;;;14.83;62.15;94916.89;1701482;82;21430;-54
2022/10/14 09:24:40;;;;;;;8.35;6.70;;;;;;;15.08;61.12;94921.36;1682533;84;21913;-54
2022/10/14 09:27:20;;;;;;;9.70;6.35;;;;;;;15.30;60.09;94915.53;1717576;81;21025;-54
2022/10/14 09:29:58;;;;;;;11.18;6.72;;;;;;;15.46;59.42;94910.94;1700938;82;21053;-55
2022/10/14 09:32:50;;;;;;;11.93;6.78;;;;;;;15.61;58.79;94919.46;1707426;82;21476;-53
2022/10/14 09:35:34;;;;;;;11.60;7.25;;;;;;;15.73;57.86;94918.41;1706579;82;20998;-57
2022/10/14 09:38:01;;;;;;;10.48;6.33;;;;;;;15.99;57.31;94916.64;1714679;82;20947;-52
2022/10/14 09:40:34;;;;;;;9.65;6.83;;;;;;;16.35;56.25;94909.34;1704792;83;21002;-56
2022/10/14 09:43:14;;;;;;;10.63;5.67;;;;;;;16.69;55.74;94910.02;1690402;83;21592;-53
2022/10/14 09:46:09;;;;;;;8.30;6.10;;;;;;;17.16;54.83;94904.89;1700709;82;21246;-56
2022/10/14 09:48:47;;;;;;;9.80;6.20;;;;;;;17.74;54.29;94901.05;1720091;82;21045;-55
2022/10/14 09:51:32;;;;;;;9.75;5.60;;;;;;;18.46;51.92;94894.32;1694983;82;21096;-55
2022/10/14 09:54:02;;;;;;;9.63;5.80;;;;;;;19.14;49.60;94896.45;1717219;83;21031;-54
2022/10/14 09:56:38;;;;;;;10.55;5.50;;;;;;;19.70;48.46;94896.86;1716822;82;21085;-54
2022/10/14 09:59:03;;;;;;;9.68;5.90;;;;;;;20.10;46.94;94895.74;1714064;82;21886;-53
2022/10/14 10:01:47;;;;;;;7.92;4.80;;;;;;;20.54;46.86;94886.78;1671372;84;21588;-54
2022/10/14 10:04:35;;;;;;;7.47;5.60;;;;;;;21.08;44.63;94890.83;1726646;82;21039;-54
2022/10/14 10:07:08;;;;;;;13.08;5.25;;;;;;;21.40;43.23;94892.78;1686175;82;21146;-54
2022/10/14 10:09:34;;;;;;;9.33;5.37;;;;;;;21.76;42.67;94883.25;1709766;83;20993;-54
2022/10/14 10:12:24;;;;;;;12.58;6.78;;;;;;;22.15;41.11;94885.95;1719102;82;21169;-54
2022/10/14 10:14:57;;;;;;;9.90;4.92;;;;;;;22.33;40.62;94881.12;1699503;82;21154;-54
2022/10/14 10:17:26;;;;;;;8.65;4.87;;;;;;;22.71;40.25;94880.12;1721836;82;20998;-54
2022/10/14 10:20:31;;;;;;;11.48;5.70;;;;;;;23.06;40.37;94870.20;1710929;83;21041;-54
2022/10/14 10:22:58;;;;;;;15.03;6.45;;;;;;;23.59;39.85;94868.00;1698727;82;21518;-54
2022/10/14 10:25:27;;;;;;;7.70;5.13;;;;;;;24.33;39.28;94867.42;1697122;83;21196;-54
2022/10/14 10:27:56;;;;;;;5.58;4.55;;;;;;;24.91;38.73;94866.16;1723029;82;21035;-53
2022/10/14 10:30:27;;;;;;;7.37;4.70;;;;;;;25.27;36.16;94861.70;1711058;83;21042;-55
2022/10/14 10:33:39;;;;;;;9.90;4.80;;;;;;;25.54;35.58;94859.00;1713413;83;21068;-56
2022/10/14 10:36:25;;;;;;;9.25;4.83;;;;;;;25.68;34.77;94849.24;1700066;83;21069;-55
2022/10/14 10:39:14;;;;;;;5.22;4.10;;;;;;;26.00;34.67;94842.94;1703037;83;21141;-55
2022/10/14 10:42:27;;;;;;;8.08;3.67;;;;;;;26.39;33.95;94838.59;1713833;82;21972;-55
2022/10/14 10:44:59;;;;;;;11.08;4.20;;;;;;;26.73;33.01;94842.81;1667255;86;21125;-55
2022/10/14 10:47:59;;;;;;;6.97;4.40;;;;;;;27.08;31.60;94841.55;1684689;83;21057;-54
2022/10/14 10:50:43;;;;;;;8.20;4.45;;;;;;;26.83;31.28;94839.63;1723181;83;20999;-54
2022/10/14 10:53:39;;;;;;;6.40;4.87;;;;;;;26.01;32.23;94836.64;1693012;84;21201;-55
2022/10/14 10:56:17;;;;;;;7.17;4.30;;;;;;;25.28;32.96;94837.88;1694122;84;21225;-53
2022/10/14 10:59:07;;;;;;;8.20;4.12;;;;;;;25.11;33.61;94828.27;1694323;84;21058;-55
2022/10/14 11:01:49;;;;;;;6.10;4.37;;;;;;;25.42;33.14;94833.73;1689898;84;21042;-52
2022/10/14 11:04:34;;;;;;;5.08;3.30;;;;;;;25.80;34.14;94820.91;1728169;83;20979;-59
2022/10/14 11:13:49;;;;;;;6.00;4.45;;;;;;;27.66;31.35;94820.58;1726646;83;21411;-55
2022/10/14 11:16:35;;;;;;;8.78;4.62;;;;;;;27.78;30.75;94807.64;1726632;82;21456;-56
2022/10/14 11:19:14;;;;;;;8.83;4.72;;;;;;;27.73;29.44;94814.22;1727736;82;21120;-56
2022/10/14 11:22:19;;;;;;;5.78;3.98;;;;;;;27.85;30.12;94808.36;1728149;83;21860;-54
2022/10/14 11:24:57;;;;;;;7.67;4.17;;;;;;;28.17;30.05;94804.41;1717770;83;21099;-54
2022/10/14 11:27:41;;;;;;;11.08;5.08;;;;;;;28.32;29.46;94793.94;1709850;83;21029;-55
2022/10/14 11:30:37;;;;;;;5.58;3.80;;;;;;;28.64;29.15;94791.36;1727635;83;21042;-54
2022/10/14 11:33:34;;;;;;;6.28;3.75;;;;;;;28.98;27.74;94791.03;1728559;82;21097;-55
2022/10/14 11:36:25;;;;;;;8.20;3.83;;;;;;;29.19;27.44;94792.99;1723734;81;21367;-57
2022/10/14 11:39:25;;;;;;;8.30;3.60;;;;;;;29.23;26.75;94791.30;1715000;83;21024;-54
2022/10/14 11:42:12;;;;;;;6.60;4.22;;;;;;;29.08;27.14;94782.03;1699016;84;21087;-56
2022/10/14 11:44:41;;;;;;;13.15;4.70;;;;;;;28.77;27.48;94781.92;1699877;84;21548;-56
2022/10/14 11:47:24;;;;;;;5.35;3.47;;;;;;;28.87;27.47;94781.44;1699427;84;21064;-58
2022/10/14 11:50:24;;;;;;;4.37;3.42;;;;;;;28.87;26.92;94775.78;1699598;84;21511;-56
2022/10/14 11:53:17;;;;;;;10.53;7.62;;;;;;;28.70;26.95;94781.24;1691914;83;21104;-55
2022/10/14 11:55:52;;;;;;;13.30;3.80;;;;;;;28.54;27.49;94770.57;1719525;82;21115;-54
2022/10/14 11:58:24;;;;;;;10.68;4.35;;;;;;;28.31;27.02;94771.84;1690813;83;21012;-55
2022/10/14 12:00:58;;;;;;;12.45;3.72;;;;;;;28.22;26.88;94763.88;1682164;85;21554;-56
2022/10/14 12:03:49;;;;;;;5.83;3.70;;;;;;;28.18;27.18;94769.16;1649040;86;21785;-55
2022/10/14 12:06:26;;;;;;;14.10;3.90;;;;;;;28.26;27.16;94757.92;1638555;86;21556;-54